Monte-Carlo, Monaco
Current Conditions -  °F | °C
As of 3:30 AM on Tuesday 25 Nov 2014 (Local Time) from LFMN Reporting Station
Broken Clouds Broken Clouds  
Wind Chill: 59°   Ceiling: 1700
Heat Index: 59°   Visibility: 6mi
Dew Point: 52°   Wind: 9mph
Humidity: 77%   Direction: 320°NW
Pressure: 30.12"   Gusts: NA
Location:  43.75°N, 7.42°E
Report Text: LFMN 250130Z 32008KT 9999 BKN017 15/11 Q1020 NOSIG
Loading
Personal Weather Stations






























Interactive Weather Map New forecast layout! Learn more

10-Day Weather Forecast

Advertisements
Track Severe Weather on mobile